Latest Weather Observations for Cerberus

IDV60801

Issued at 4:02 am EST Monday 3 August 2015 (issued every 30 minutes, with the page automatically refreshed every 10 minutes)

About weather observations | Map of weather stations | Latest weather observations for VIC | Other Formats
Station Details ID: 086361 Name: CERBERUS Lat: -38.36 Lon: 145.18 Height: 12.69 m
Data from the previous 72 hours. | See also: Recent months at Cerberus
Date/Time
EST
Temp
°C
App
Temp
°C
Dew
Point
Rel
Hum
%
Delta-T
°C
Wind Press
QNH
hPa
Press
MSL
hPa
Rain
since 9 am
mm
Dir
 
Spd
km/h
Gust
km/h
Spd
kts
Gust
kts
03/04:00am 8.0 2.5 5.8 86 1.0 WNW 24 37 13 20 1010.2 1010.3 6.0
03/03:30am 8.0 3.3 6.0 87 0.9 WNW 20 33 11 18 1009.7 1009.8 5.6
03/03:16am 7.9 1.6 5.7 86 1.0 WNW 28 50 15 27 1009.8 1009.9 5.4
03/03:00am 8.4 3.3 5.9 84 1.1 W 22 35 12 19 1010.2 1010.3 3.6
03/02:30am 8.8 2.1 5.4 79 1.5 WNW 30 50 16 27 1009.8 1009.9 3.2
03/02:00am 9.2 2.4 5.2 76 1.8 WNW 30 54 16 29 1009.8 1009.9 3.0
03/01:30am 9.5 2.6 4.7 72 2.1 WNW 30 52 16 28 1009.7 1009.8 3.0
03/01:25am 9.7 2.8 4.7 71 2.2 WNW 30 50 16 27 1009.6 1009.7 3.0
03/01:00am 9.7 2.8 4.7 71 2.2 WNW 30 46 16 25 1009.6 1009.7 3.0
03/12:30am 9.7 2.2 4.3 69 2.4 WNW 33 56 18 30 1009.4 1009.5 3.0
03/12:00am 9.4 2.5 4.4 71 2.2 WNW 30 56 16 30 1009.7 1009.8 3.0
 
Date/Time
EST
Temp
°C
App
Temp
°C
Dew
Point
Rel
Hum
%
Delta-T
°C
Wind Press
QNH
hPa
Press
MSL
hPa
Rain
since 9 am
mm
Dir
 
Spd
km/h
Gust
km/h
Spd
kts
Gust
kts
02/11:46pm 9.4 2.9 4.6 72 2.1 WNW 28 52 15 28 1009.6 1009.7 3.0
02/11:30pm 9.2 3.1 4.6 73 2.0 WNW 26 44 14 24 1009.7 1009.8 3.0
02/11:04pm 9.2 2.8 5.0 75 1.9 NW 28 50 15 27 1009.7 1009.8 3.0
02/11:00pm 9.1 3.0 4.9 75 1.9 NW 26 44 14 24 1009.8 1009.9 3.0
02/10:30pm 9.1 3.1 5.3 77 1.7 NW 26 46 14 25 1010.0 1010.1 3.0
02/10:17pm 9.1 2.7 5.1 76 1.8 NW 28 46 15 25 1009.9 1010.0 3.0
02/10:00pm 9.3 3.6 5.1 75 1.9 NW 24 41 13 22 1010.3 1010.4 3.0
02/09:30pm 9.4 4.6 5.4 76 1.8 NW 20 32 11 17 1010.3 1010.4 3.0
02/09:00pm 9.5 4.3 5.7 77 1.7 WNW 22 33 12 18 1010.3 1010.4 3.0
02/08:30pm 9.3 4.6 6.0 80 1.5 WNW 20 35 11 19 1010.2 1010.3 3.0
02/08:00pm 9.2 4.1 6.1 81 1.4 WNW 22 33 12 18 1010.0 1010.1 3.0
02/07:30pm 9.3 3.9 6.4 82 1.3 WNW 24 35 13 19 1010.0 1010.1 3.0
02/07:00pm 9.2 4.7 6.8 85 1.1 WNW 20 32 11 17 1009.8 1009.9 3.0
02/06:30pm 9.1 4.6 7.1 87 0.9 WNW 20 30 11 16 1009.7 1009.8 3.0
02/06:00pm 9.4 4.2 7.2 86 1.0 WNW 24 41 13 22 1009.4 1009.5 2.8
02/05:30pm 9.8 4.6 7.4 85 1.1 W 24 37 13 20 1008.8 1008.9 2.2
02/05:00pm 9.4 4.6 7.3 87 1.0 W 22 43 12 23 1008.7 1008.8 2.2
02/04:30pm 9.4 4.2 7.3 87 1.0 W 24 39 13 21 1009.0 1009.1 1.6
02/04:10pm 9.9 3.9 7.2 83 1.3 WSW 28 54 15 29 1008.7 1008.8 1.0
02/04:00pm 10.6 4.8 6.4 75 2.0 WSW 26 52 14 28 1008.6 1008.7 0.2
02/03:50pm 10.9 3.8 5.4 69 2.5 W 32 52 17 28 1008.3 1008.4 0.0
02/03:30pm 12.7 5.8 4.7 58 3.7 WNW 30 44 16 24 1007.8 1007.9 0.0
02/03:00pm 12.6 5.3 4.6 58 3.7 WNW 32 52 17 28 1007.7 1007.8 0.0
02/02:32pm 12.5 6.0 4.7 59 3.6 WNW 28 46 15 25 1007.7 1007.8 0.0
02/02:30pm 12.6 5.7 4.8 59 3.6 WNW 30 46 16 25 1007.7 1007.8 0.0
02/02:20pm 12.4 5.6 4.9 60 3.4 WNW 30 54 16 29 1007.6 1007.7 0.0
02/02:00pm 12.3 4.8 4.5 59 3.6 WNW 33 50 18 27 1007.6 1007.7 0.0
02/01:41pm 13.0 6.2 4.9 58 3.7 WNW 30 57 16 31 1007.7 1007.8 0.0
02/01:30pm 12.5 6.0 4.7 59 3.6 WNW 28 44 15 24 1008.2 1008.3 0.0
02/01:13pm 12.4 5.9 4.6 59 3.6 WNW 28 46 15 25 1008.3 1008.4 0.0
02/01:00pm 12.9 7.1 4.6 57 3.8 WNW 24 39 13 21 1008.6 1008.7 0.0
02/12:52pm 12.7 6.2 4.9 59 3.6 NW 28 46 15 25 1008.6 1008.7 0.0
02/12:30pm 11.8 6.7 4.3 60 3.4 NW 20 33 11 18 1009.3 1009.4 0.0
02/12:00pm 11.9 6.0 3.7 57 3.7 NW 24 37 13 20 1009.8 1009.9 0.0
02/11:36am 11.1 4.5 4.1 62 3.1 NW 28 46 15 25 1010.4 1010.5 0.0
02/11:30am 11.2 5.3 4.0 61 3.2 NW 24 41 13 22 1010.5 1010.6 0.0
02/11:00am 10.7 5.1 3.5 61 3.2 NW 22 37 12 20 1011.3 1011.4 0.0
02/10:30am 10.5 4.9 3.5 62 3.1 NW 22 35 12 19 1011.6 1011.7 0.0
02/10:00am 10.1 4.1 3.4 63 2.9 NW 24 39 13 21 1011.6 1011.7 0.0
02/09:30am 9.8 4.2 3.3 64 2.8 NW 22 33 12 18 1011.6 1011.7 0.0
02/09:00am 9.4 4.3 3.2 65 2.7 NW 19 32 10 17 1011.6 1011.7 0.0
02/08:30am 8.1 4.1 2.8 69 2.2 NW 13 22 7 12 1011.9 1012.0 0.0
02/08:00am 7.7 4.0 2.6 70 2.1 NNW 11 20 6 11 1012.3 1012.4 0.0
02/07:30am 7.8 3.4 2.7 70 2.1 NW 15 24 8 13 1012.2 1012.3 0.0
02/07:00am 8.2 3.4 2.7 68 2.3 NW 17 28 9 15 1012.0 1012.1 0.0
02/06:30am 8.0 2.6 2.7 69 2.2 NW 20 30 11 16 1012.2 1012.3 0.0
02/06:00am 7.7 3.8 3.2 73 1.9 NW 13 24 7 13 1012.1 1012.2 0.0
02/05:30am 7.1 4.4 3.9 80 1.4 NW 7 13 4 7 1012.3 1012.4 0.0
02/05:00am 7.1 4.4 3.5 78 1.5 NW 7 13 4 7 1012.3 1012.4 0.0
02/04:30am 7.0 5.2 3.4 78 1.5 NW 2 6 1 3 1012.3 1012.4 0.0
02/04:00am 6.8 4.2 3.2 78 1.5 NW 6 7 3 4 1012.7 1012.8 0.0
02/03:30am 7.2 4.4 3.4 77 1.6 NW 7 11 4 6 1013.2 1013.3 0.0
02/03:00am 6.0 3.4 3.0 81 1.2 NW 6 11 3 6 1014.0 1014.0 0.0
02/02:30am 5.8 3.7 3.8 87 0.8 NNW 4 4 2 2 1014.1 1014.1 0.0
02/02:00am 6.3 3.8 3.8 84 1.1 NNW 6 6 3 3 1014.3 1014.3 0.0
02/01:30am 6.6 4.1 3.8 82 1.2 NNW 6 6 3 3 1014.6 1014.6 0.0
02/01:00am 6.5 4.3 3.3 80 1.3 NNW 4 7 2 4 1014.8 1014.8 0.0
02/12:30am 6.7 4.5 3.5 80 1.4 NNW 4 6 2 3 1015.3 1015.3 0.0
02/12:00am 6.7 4.5 3.5 80 1.4 NW 4 6 2 3 1015.6 1015.6 0.0
 
Date/Time
EST
Temp
°C
App
Temp
°C
Dew
Point
Rel
Hum
%
Delta-T
°C
Wind Press
QNH
hPa
Press
MSL
hPa
Rain
since 9 am
mm
Dir
 
Spd
km/h
Gust
km/h
Spd
kts
Gust
kts
01/11:30pm 6.8 4.2 3.4 79 1.4 NW 6 9 3 5 1015.4 1015.4 0.0
01/11:00pm 6.6 4.0 3.4 80 1.3 NW 6 9 3 5 1015.4 1015.4 0.0
01/10:30pm 6.9 4.7 3.5 79 1.4 NW 4 7 2 4 1015.4 1015.4 0.0
01/10:00pm 6.5 4.0 3.7 82 1.2 NW 6 7 3 4 1016.0 1016.0 0.0
01/09:30pm 6.7 4.0 3.5 80 1.4 NNW 7 9 4 5 1015.8 1015.8 0.0
01/09:00pm 6.9 4.4 3.7 80 1.4 NNW 6 7 3 4 1015.5 1015.5 0.0
01/08:30pm 7.1 4.6 3.5 78 1.5 NNW 6 7 3 4 1015.7 1015.7 0.0
01/08:00pm 7.7 5.2 3.9 77 1.6 N 6 7 3 4 1015.6 1015.6 0.0
01/07:30pm 8.4 6.0 4.2 75 1.8 N 6 7 3 4 1015.6 1015.6 0.0
01/07:00pm 8.6 6.2 4.4 75 1.8 N 6 9 3 5 1015.7 1015.7 0.0
01/06:30pm 8.0 5.9 3.8 75 1.8 NW 4 6 2 3 1015.5 1015.5 0.0
01/06:00pm 7.8 5.5 2.7 70 2.1 NW 4 6 2 3 1015.0 1015.0 0.0
01/05:30pm 8.2 6.0 3.5 72 2.0 WNW 4 4 2 2 1014.9 1014.9 0.0
01/05:00pm 9.2 6.8 2.3 62 2.9 WNW 4 6 2 3 1014.4 1014.4 0.0
01/04:30pm 10.3 7.3 0.9 52 3.9 W 6 9 3 5 1014.2 1014.2 0.0
01/04:00pm 10.6 6.7 1.2 52 3.9 WSW 11 17 6 9 1014.2 1014.2 0.0
01/03:30pm 11.3 7.0 0.7 48 4.4 WSW 13 19 7 10 1014.2 1014.2 0.0
01/03:00pm 11.0 6.3 0.7 49 4.2 WSW 15 22 8 12 1014.0 1014.0 0.0
01/02:30pm 11.1 6.1 1.6 52 4.0 WSW 17 24 9 13 1013.8 1013.8 0.0
01/02:00pm 11.2 7.1 2.5 55 3.7 WSW 13 20 7 11 1013.7 1013.7 0.0
01/01:30pm 11.2 6.9 3.0 57 3.6 WSW 15 24 8 13 1013.8 1013.8 0.0
01/01:00pm 11.1 6.2 1.9 53 3.9 WSW 17 24 9 13 1013.9 1013.9 0.0
01/12:30pm 10.8 5.4 1.4 52 3.9 WSW 19 24 10 13 1013.9 1013.9 0.0
01/12:00pm 11.1 6.8 3.2 58 3.5 WSW 15 28 8 15 1014.0 1014.0 0.0
01/11:30am 11.0 6.5 4.2 63 3.0 WSW 17 28 9 15 1013.9 1013.9 0.0
01/11:00am 10.3 6.2 4.5 67 2.6 WSW 15 24 8 13 1013.9 1013.9 0.0
01/10:30am 10.2 6.5 6.2 76 1.9 W 15 22 8 12 1013.6 1013.6 0.0
01/10:00am 9.8 7.3 6.5 80 1.5 WSW 9 15 5 8 1012.8 1012.9 0.0
01/09:30am 9.2 5.5 6.3 82 1.3 WSW 15 24 8 13 1012.2 1012.3 0.0
01/09:00am 8.8 4.3 6.9 88 0.9 WSW 20 32 11 17 1011.5 1011.6 6.0
01/08:30am 9.1 5.3 7.5 90 0.8 WSW 17 24 9 13 1011.1 1011.2 6.0
01/08:00am 8.9 4.7 7.4 90 0.7 WSW 19 28 10 15 1010.6 1010.7 6.0
01/07:30am 9.6 5.3 7.7 88 0.9 NW 20 32 11 17 1009.3 1009.4 4.2
01/07:00am 9.7 4.9 7.5 86 1.0 NNW 22 41 12 22 1008.1 1008.2 3.0
01/06:30am 10.2 5.0 7.1 81 1.5 NNW 24 43 13 23 1007.3 1007.4 0.8
01/06:00am 10.6 6.0 6.7 77 1.8 NNW 20 35 11 19 1006.9 1007.0 0.2
01/05:30am 11.2 4.8 6.9 75 2.0 NNW 30 52 16 28 1006.5 1006.6 0.0
01/05:02am 12.6 6.4 6.0 64 3.1 NNW 28 52 15 28 1006.6 1006.7 0.0
01/05:00am 12.5 6.6 5.9 64 3.1 NNW 26 52 14 28 1006.7 1006.8 0.0
01/04:36am 12.8 6.5 5.9 63 3.2 NNW 28 63 15 34 1006.3 1006.4 0.0
01/04:30am 12.3 7.1 5.7 64 3.1 NNW 22 41 12 22 1006.7 1006.8 0.0
01/04:00am 12.4 6.7 5.1 61 3.4 NNW 24 44 13 24 1007.2 1007.3 0.0
01/03:30am 12.3 5.4 4.5 59 3.5 NNW 30 54 16 29 1007.0 1007.1 0.0
01/03:01am 12.1 5.4 3.9 57 3.7 NNW 28 56 15 30 1007.3 1007.4 0.0
01/03:00am 11.9 5.6 3.9 58 3.6 NNW 26 56 14 30 1007.3 1007.4 0.0
01/02:48am 11.9 5.2 3.7 57 3.7 NNW 28 52 15 28 1007.5 1007.6 0.0
01/02:30am 11.5 5.1 3.3 57 3.6 NNW 26 52 14 28 1008.1 1008.2 0.0
01/02:02am 11.5 4.7 3.0 56 3.7 NNW 28 48 15 26 1008.5 1008.6 0.0
01/02:00am 11.5 5.1 3.0 56 3.7 NNW 26 48 14 26 1008.6 1008.7 0.0
01/01:49am 11.5 4.6 2.8 55 3.8 NNW 28 57 15 31 1008.6 1008.7 0.0
01/01:30am 11.3 4.8 2.6 55 3.8 NNW 26 44 14 24 1009.3 1009.4 0.0
01/01:00am 11.2 5.4 2.2 54 3.9 N 22 44 12 24 1010.1 1010.2 0.0
01/12:30am 11.0 4.8 2.3 55 3.7 N 24 54 13 29 1010.9 1011.0 0.0
01/12:00am 10.6 5.7 2.2 56 3.6 N 17 33 9 18 1011.9 1012.0 0.0
 
Date/Time
EST
Temp
°C
App
Temp
°C
Dew
Point
Rel
Hum
%
Delta-T
°C
Wind Press
QNH
hPa
Press
MSL
hPa
Rain
since 9 am
mm
Dir
 
Spd
km/h
Gust
km/h
Spd
kts
Gust
kts
31/11:30pm 10.4 5.0 2.5 58 3.4 N 20 33 11 18 1012.2 1012.3 0.0
31/11:00pm 10.3 5.0 2.9 60 3.2 NNW 20 37 11 20 1013.0 1013.1 0.0
31/10:30pm 10.0 5.7 3.3 63 2.9 N 15 35 8 19 1013.4 1013.5 0.0
31/10:00pm 9.9 6.0 3.2 63 2.9 NNW 13 24 7 13 1014.1 1014.1 0.0
31/09:30pm 9.8 5.5 3.3 64 2.8 NNW 15 26 8 14 1014.5 1014.5 0.0
31/09:00pm 9.9 5.2 3.0 62 3.0 NNW 17 30 9 16 1015.0 1015.0 0.0
31/08:30pm 10.1 5.8 3.2 62 3.0 NNW 15 30 8 16 1015.2 1015.2 0.0
31/08:00pm 10.5 5.3 3.3 61 3.1 NNW 20 35 11 19 1014.6 1014.6 0.0
31/07:30pm 10.4 5.4 3.4 62 3.1 N 19 35 10 19 1014.5 1014.5 0.0
31/07:00pm 8.3 5.6 3.8 73 1.9 N 7 15 4 8 1015.2 1015.2 0.0
31/06:30pm 5.7 3.9 3.2 84 1.0 NW 2 4 1 2 1015.5 1015.5 0.0
31/06:00pm 6.6 5.1 3.2 79 1.4 CALM 0 0 0 0 1015.5 1015.5 0.0
31/05:30pm 8.2 6.8 3.3 71 2.1 CALM 0 0 0 0 1015.4 1015.4 0.0
31/05:00pm 10.3 8.9 3.6 63 2.9 CALM 0 0 0 0 1015.4 1015.4 0.0
31/04:30pm 11.3 8.5 2.1 53 3.9 NW 6 7 3 4 1015.4 1015.4 0.0
31/04:00pm 11.5 8.5 2.0 52 4.1 NW 7 11 4 6 1015.7 1015.7 0.0
31/03:30pm 11.5 7.7 2.0 52 4.1 WNW 11 17 6 9 1016.4 1016.4 0.0
31/03:00pm 11.7 8.1 2.7 54 3.9 WNW 11 20 6 11 1016.7 1016.7 0.0
31/02:30pm 11.5 7.5 2.8 55 3.8 WNW 13 20 7 11 1017.1 1017.1 0.0
31/02:00pm 11.2 6.9 3.3 58 3.5 WNW 15 24 8 13 1017.5 1017.5 0.0
31/01:30pm 11.3 6.9 2.6 55 3.8 WNW 15 24 8 13 1018.0 1018.0 0.0
31/01:00pm 11.3 7.4 3.3 58 3.5 WNW 13 20 7 11 1018.7 1018.7 0.0
31/12:30pm 11.1 6.9 3.9 61 3.2 WNW 15 24 8 13 1019.5 1019.5 0.0
31/12:00pm 10.7 7.2 5.3 69 2.5 NNW 13 20 7 11 1020.1 1020.1 0.0
31/11:30am 9.7 6.4 4.5 70 2.3 NNW 11 17 6 9 1020.8 1020.8 0.0
31/11:00am 9.6 5.7 5.2 74 2.0 NNW 15 24 8 13 1021.3 1021.3 0.0
31/10:30am 9.5 6.0 5.3 75 1.9 NNW 13 22 7 12 1020.9 1020.9 0.0
31/10:00am 9.3 6.6 5.5 77 1.7 NNW 9 19 5 10 1020.9 1020.9 0.0
31/09:30am 8.9 5.3 5.1 77 1.7 NW 13 20 7 11 1020.8 1020.8 0.0
31/09:00am 8.3 5.1 5.2 81 1.4 NW 11 15 6 8 1020.6 1020.6 5.6
31/08:30am 7.2 4.0 4.9 85 1.0 NW 11 17 6 9 1020.4 1020.4 5.6
31/08:00am 6.3 3.1 5.1 92 0.5 NW 11 17 6 9 1020.3 1020.3 5.6
31/07:30am 5.5 2.6 4.5 93 0.4 NW 9 11 5 6 1019.7 1019.7 5.6
31/07:00am 4.4 1.8 3.2 92 0.5 NW 6 7 3 4 1019.5 1019.5 5.6
31/06:30am 4.9 2.2 3.9 93 0.4 NW 7 9 4 5 1019.2 1019.2 5.4
31/06:00am 5.3 2.9 4.1 92 0.5 NW 6 7 3 4 1019.0 1019.0 5.4
31/05:30am 5.8 3.9 4.8 93 0.4 NW 4 7 2 4 1019.0 1019.0 5.4
31/05:00am 6.4 4.9 5.0 91 0.6 NW 2 4 1 2 1018.9 1018.9 5.4
31/04:30am 6.6 4.1 4.9 89 0.7 NW 7 11 4 6 1018.4 1018.4 5.4

Other Formats:

Comma delimited format used in spreadsheet applications
http://www.bom.gov.au/fwo/IDV60801/IDV60801.94898.axf

JavaScript Object Notation format (JSON) in row-major order
http://www.bom.gov.au/fwo/IDV60801/IDV60801.94898.json